sensor_id;sensor_type;location;lat;lon;timestamp;temperature;humidity
13446;DHT22;6795;51.232;3.764;2023-01-15T00:02:06;8.10;99.90
13446;DHT22;6795;51.232;3.764;2023-01-15T00:04:36;8.10;99.90
13446;DHT22;6795;51.232;3.764;2023-01-15T00:07:04;8.00;99.90
13446;DHT22;6795;51.232;3.764;2023-01-15T00:09:33;8.00;99.90
13446;DHT22;6795;51.232;3.764;2023-01-15T00:12:01;8.00;99.90
13446;DHT22;6795;51.232;3.764;2023-01-15T00:14:30;8.00;99.90
13446;DHT22;6795;51.232;3.764;2023-01-15T00:16:58;7.90;99.90
13446;DHT22;6795;51.232;3.764;2023-01-15T00:19:26;7.90;99.90
13446;DHT22;6795;51.232;3.764;2023-01-15T00:21:56;7.90;99.90
13446;DHT22;6795;51.232;3.764;2023-01-15T00:24:25;7.90;99.90
13446;DHT22;6795;51.232;3.764;2023-01-15T00:27:10;7.90;99.90
13446;DHT22;6795;51.232;3.764;2023-01-15T00:29:56;7.90;99.90
13446;DHT22;6795;51.232;3.764;2023-01-15T00:32:25;7.90;99.90
13446;DHT22;6795;51.232;3.764;2023-01-15T00:34:56;7.90;99.90
13446;DHT22;6795;51.232;3.764;2023-01-15T00:37:26;7.90;99.90
13446;DHT22;6795;51.232;3.764;2023-01-15T00:39:55;7.90;99.90
13446;DHT22;6795;51.232;3.764;2023-01-15T00:42:23;7.90;99.90
13446;DHT22;6795;51.232;3.764;2023-01-15T00:44:51;8.00;99.90
13446;DHT22;6795;51.232;3.764;2023-01-15T00:47:20;7.90;99.90
13446;DHT22;6795;51.232;3.764;2023-01-15T00:49:49;7.90;99.90
13446;DHT22;6795;51.232;3.764;2023-01-15T00:52:17;7.90;99.90
13446;DHT22;6795;51.232;3.764;2023-01-15T00:54:47;7.80;99.90
13446;DHT22;6795;51.232;3.764;2023-01-15T00:57:15;7.80;99.90
13446;DHT22;6795;51.232;3.764;2023-01-15T00:59:44;7.70;99.90
13446;DHT22;6795;51.232;3.764;2023-01-15T01:02:12;7.70;99.90
13446;DHT22;6795;51.232;3.764;2023-01-15T01:04:41;7.70;99.90
13446;DHT22;6795;51.232;3.764;2023-01-15T01:07:09;7.60;99.90
13446;DHT22;6795;51.232;3.764;2023-01-15T01:09:37;7.60;99.90
13446;DHT22;6795;51.232;3.764;2023-01-15T01:12:07;7.60;99.90
13446;DHT22;6795;51.232;3.764;2023-01-15T01:14:37;7.60;99.90
13446;DHT22;6795;51.232;3.764;2023-01-15T01:17:06;7.50;99.90
13446;DHT22;6795;51.232;3.764;2023-01-15T01:19:35;7.50;99.90
13446;DHT22;6795;51.232;3.764;2023-01-15T01:22:04;7.50;99.90
13446;DHT22;6795;51.232;3.764;2023-01-15T01:24:32;7.50;99.90
13446;DHT22;6795;51.232;3.764;2023-01-15T01:27:00;7.50;99.90
13446;DHT22;6795;51.232;3.764;2023-01-15T01:29:30;7.50;99.90
13446;DHT22;6795;51.232;3.764;2023-01-15T01:31:59;7.50;99.90
13446;DHT22;6795;51.232;3.764;2023-01-15T01:34:27;7.50;99.90
13446;DHT22;6795;51.232;3.764;2023-01-15T01:36:57;7.50;99.90
13446;DHT22;6795;51.232;3.764;2023-01-15T01:39:25;7.50;99.90
13446;DHT22;6795;51.232;3.764;2023-01-15T01:41:54;7.50;99.90
13446;DHT22;6795;51.232;3.764;2023-01-15T01:47:37;7.50;99.90
13446;DHT22;6795;51.232;3.764;2023-01-15T01:50:09;7.50;99.90
13446;DHT22;6795;51.232;3.764;2023-01-15T01:52:42;7.50;99.90
13446;DHT22;6795;51.232;3.764;2023-01-15T01:55:14;7.40;99.90
13446;DHT22;6795;51.232;3.764;2023-01-15T01:57:44;7.50;99.90
13446;DHT22;6795;51.232;3.764;2023-01-15T02:00:14;7.50;99.90
13446;DHT22;6795;51.232;3.764;2023-01-15T02:02:45;7.40;99.90
13446;DHT22;6795;51.232;3.764;2023-01-15T02:05:20;7.40;99.90
13446;DHT22;6795;51.232;3.764;2023-01-15T02:07:50;7.40;99.90
13446;DHT22;6795;51.232;3.764;2023-01-15T02:10:19;7.40;99.90
13446;DHT22;6795;51.232;3.764;2023-01-15T02:12:54;7.40;99.90
13446;DHT22;6795;51.232;3.764;2023-01-15T02:15:27;7.40;99.90
13446;DHT22;6795;51.232;3.764;2023-01-15T02:18:06;7.40;99.90
13446;DHT22;6795;51.232;3.764;2023-01-15T02:20:39;7.30;99.90
13446;DHT22;6795;51.232;3.764;2023-01-15T02:26:12;7.20;99.90
13446;DHT22;6795;51.232;3.764;2023-01-15T02:28:50;7.10;99.90
13446;DHT22;6795;51.232;3.764;2023-01-15T02:31:23;7.10;99.90
13446;DHT22;6795;51.232;3.764;2023-01-15T02:33:57;7.10;99.90
13446;DHT22;6795;51.232;3.764;2023-01-15T02:36:28;7.20;99.90
13446;DHT22;6795;51.232;3.764;2023-01-15T02:38:58;7.20;99.90
13446;DHT22;6795;51.232;3.764;2023-01-15T02:41:33;7.20;99.90
13446;DHT22;6795;51.232;3.764;2023-01-15T02:44:06;7.20;99.90
13446;DHT22;6795;51.232;3.764;2023-01-15T02:46:36;7.20;99.90
13446;DHT22;6795;51.232;3.764;2023-01-15T02:49:07;7.20;99.90
13446;DHT22;6795;51.232;3.764;2023-01-15T02:51:39;7.10;99.90
13446;DHT22;6795;51.232;3.764;2023-01-15T02:54:12;7.10;99.90
13446;DHT22;6795;51.232;3.764;2023-01-15T02:56:43;7.00;99.90
13446;DHT22;6795;51.232;3.764;2023-01-15T02:59:18;6.90;99.90
13446;DHT22;6795;51.232;3.764;2023-01-15T03:01:52;6.90;99.90
13446;DHT22;6795;51.232;3.764;2023-01-15T03:04:29;6.90;99.90
13446;DHT22;6795;51.232;3.764;2023-01-15T03:07:04;6.90;99.90
13446;DHT22;6795;51.232;3.764;2023-01-15T03:09:34;6.90;99.90
13446;DHT22;6795;51.232;3.764;2023-01-15T03:12:06;6.90;99.90
13446;DHT22;6795;51.232;3.764;2023-01-15T03:14:41;6.90;99.90
13446;DHT22;6795;51.232;3.764;2023-01-15T03:17:16;6.90;99.90
13446;DHT22;6795;51.232;3.764;2023-01-15T03:19:47;6.90;99.90
13446;DHT22;6795;51.232;3.764;2023-01-15T03:22:20;6.90;99.90
13446;DHT22;6795;51.232;3.764;2023-01-15T03:24:52;6.90;99.90
13446;DHT22;6795;51.232;3.764;2023-01-15T03:27:22;7.00;99.90
13446;DHT22;6795;51.232;3.764;2023-01-15T03:29:54;7.00;99.90
13446;DHT22;6795;51.232;3.764;2023-01-15T03:32:23;7.00;99.90
13446;DHT22;6795;51.232;3.764;2023-01-15T03:34:53;6.90;99.90
13446;DHT22;6795;51.232;3.764;2023-01-15T03:37:24;6.90;99.90
13446;DHT22;6795;51.232;3.764;2023-01-15T03:39:55;6.90;99.90
13446;DHT22;6795;51.232;3.764;2023-01-15T03:42:32;6.90;99.90
13446;DHT22;6795;51.232;3.764;2023-01-15T03:45:09;6.80;99.90
13446;DHT22;6795;51.232;3.764;2023-01-15T03:47:48;6.80;99.90
13446;DHT22;6795;51.232;3.764;2023-01-15T03:50:26;6.80;99.90
13446;DHT22;6795;51.232;3.764;2023-01-15T03:53:05;6.80;99.90
13446;DHT22;6795;51.232;3.764;2023-01-15T03:55:41;6.80;99.90
13446;DHT22;6795;51.232;3.764;2023-01-15T03:58:14;6.80;99.90
13446;DHT22;6795;51.232;3.764;2023-01-15T04:00:49;6.80;99.90
13446;DHT22;6795;51.232;3.764;2023-01-15T04:03:19;6.80;99.90
13446;DHT22;6795;51.232;3.764;2023-01-15T04:05:50;6.80;99.90
13446;DHT22;6795;51.232;3.764;2023-01-15T04:08:19;6.90;99.90
13446;DHT22;6795;51.232;3.764;2023-01-15T04:10:52;6.90;99.90
13446;DHT22;6795;51.232;3.764;2023-01-15T04:13:21;6.90;99.90
13446;DHT22;6795;51.232;3.764;2023-01-15T04:15:51;6.90;99.90
13446;DHT22;6795;51.232;3.764;2023-01-15T04:18:20;7.00;99.90
13446;DHT22;6795;51.232;3.764;2023-01-15T04:20:49;6.90;99.90
13446;DHT22;6795;51.232;3.764;2023-01-15T04:23:17;6.90;99.90
13446;DHT22;6795;51.232;3.764;2023-01-15T04:25:46;6.90;99.90
13446;DHT22;6795;51.232;3.764;2023-01-15T04:28:14;6.90;99.90
13446;DHT22;6795;51.232;3.764;2023-01-15T04:30:43;6.90;99.90
13446;DHT22;6795;51.232;3.764;2023-01-15T04:33:13;6.90;99.90
13446;DHT22;6795;51.232;3.764;2023-01-15T04:35:42;6.90;99.90
13446;DHT22;6795;51.232;3.764;2023-01-15T04:38:12;6.90;99.90
13446;DHT22;6795;51.232;3.764;2023-01-15T04:40:41;6.90;99.90
13446;DHT22;6795;51.232;3.764;2023-01-15T04:43:27;6.90;99.90
13446;DHT22;6795;51.232;3.764;2023-01-15T04:46:13;6.90;99.90
13446;DHT22;6795;51.232;3.764;2023-01-15T04:48:43;6.90;99.90
13446;DHT22;6795;51.232;3.764;2023-01-15T04:51:11;6.90;99.90
13446;DHT22;6795;51.232;3.764;2023-01-15T04:53:40;6.90;99.90
13446;DHT22;6795;51.232;3.764;2023-01-15T04:56:08;6.90;99.90
13446;DHT22;6795;51.232;3.764;2023-01-15T04:58:36;6.90;99.90
13446;DHT22;6795;51.232;3.764;2023-01-15T05:01:10;7.00;99.90
13446;DHT22;6795;51.232;3.764;2023-01-15T05:03:38;6.90;99.90
13446;DHT22;6795;51.232;3.764;2023-01-15T05:06:09;6.90;99.90
13446;DHT22;6795;51.232;3.764;2023-01-15T05:08:37;6.90;99.90
13446;DHT22;6795;51.232;3.764;2023-01-15T05:11:06;6.90;99.90
13446;DHT22;6795;51.232;3.764;2023-01-15T05:13:34;6.80;99.90
13446;DHT22;6795;51.232;3.764;2023-01-15T05:16:11;6.80;99.90
13446;DHT22;6795;51.232;3.764;2023-01-15T05:18:41;6.70;99.90
13446;DHT22;6795;51.232;3.764;2023-01-15T05:21:15;6.70;99.90
13446;DHT22;6795;51.232;3.764;2023-01-15T05:23:47;6.60;99.90
13446;DHT22;6795;51.232;3.764;2023-01-15T05:26:16;6.50;99.90
13446;DHT22;6795;51.232;3.764;2023-01-15T05:28:45;6.50;99.90
13446;DHT22;6795;51.232;3.764;2023-01-15T05:31:14;6.60;99.90
13446;DHT22;6795;51.232;3.764;2023-01-15T05:33:44;6.50;99.90
13446;DHT22;6795;51.232;3.764;2023-01-15T05:36:15;6.40;99.90
13446;DHT22;6795;51.232;3.764;2023-01-15T05:38:44;6.40;99.90
13446;DHT22;6795;51.232;3.764;2023-01-15T05:41:14;6.40;99.90
13446;DHT22;6795;51.232;3.764;2023-01-15T05:44:02;6.30;99.90
13446;DHT22;6795;51.232;3.764;2023-01-15T05:46:32;6.30;99.90
13446;DHT22;6795;51.232;3.764;2023-01-15T05:49:01;6.30;99.90
13446;DHT22;6795;51.232;3.764;2023-01-15T05:51:32;6.30;99.90
13446;DHT22;6795;51.232;3.764;2023-01-15T05:54:02;6.20;99.90
13446;DHT22;6795;51.232;3.764;2023-01-15T05:56:30;6.10;99.90
13446;DHT22;6795;51.232;3.764;2023-01-15T05:58:59;6.10;99.90
13446;DHT22;6795;51.232;3.764;2023-01-15T06:01:27;6.10;99.90
13446;DHT22;6795;51.232;3.764;2023-01-15T06:03:57;6.10;99.90
13446;DHT22;6795;51.232;3.764;2023-01-15T06:06:26;6.10;99.90
13446;DHT22;6795;51.232;3.764;2023-01-15T06:08:56;6.10;99.90
13446;DHT22;6795;51.232;3.764;2023-01-15T06:11:25;6.00;99.90
13446;DHT22;6795;51.232;3.764;2023-01-15T06:13:53;5.90;99.90
13446;DHT22;6795;51.232;3.764;2023-01-15T06:16:21;5.80;99.90
13446;DHT22;6795;51.232;3.764;2023-01-15T06:18:50;5.80;99.90
13446;DHT22;6795;51.232;3.764;2023-01-15T06:21:18;5.70;99.90
13446;DHT22;6795;51.232;3.764;2023-01-15T06:23:47;5.70;99.90
13446;DHT22;6795;51.232;3.764;2023-01-15T06:26:17;5.70;99.90
13446;DHT22;6795;51.232;3.764;2023-01-15T06:28:45;5.70;99.90
13446;DHT22;6795;51.232;3.764;2023-01-15T06:31:15;5.70;99.90
13446;DHT22;6795;51.232;3.764;2023-01-15T06:33:44;5.80;99.90
13446;DHT22;6795;51.232;3.764;2023-01-15T06:36:14;5.70;99.90
13446;DHT22;6795;51.232;3.764;2023-01-15T06:38:44;5.70;99.90
13446;DHT22;6795;51.232;3.764;2023-01-15T06:41:13;5.70;99.90
13446;DHT22;6795;51.232;3.764;2023-01-15T06:44:01;5.70;99.90
13446;DHT22;6795;51.232;3.764;2023-01-15T06:46:54;5.70;99.90
13446;DHT22;6795;51.232;3.764;2023-01-15T06:49:39;5.70;99.90
13446;DHT22;6795;51.232;3.764;2023-01-15T06:52:08;5.70;99.90
13446;DHT22;6795;51.232;3.764;2023-01-15T06:54:36;5.70;99.90
13446;DHT22;6795;51.232;3.764;2023-01-15T06:57:04;5.70;99.90
13446;DHT22;6795;51.232;3.764;2023-01-15T06:59:34;5.70;99.90
13446;DHT22;6795;51.232;3.764;2023-01-15T07:02:03;5.70;99.90
13446;DHT22;6795;51.232;3.764;2023-01-15T07:04:31;5.70;99.90
13446;DHT22;6795;51.232;3.764;2023-01-15T07:07:00;5.60;99.90
13446;DHT22;6795;51.232;3.764;2023-01-15T07:09:28;5.50;99.90
13446;DHT22;6795;51.232;3.764;2023-01-15T07:11:57;5.40;99.90
13446;DHT22;6795;51.232;3.764;2023-01-15T07:14:26;5.40;99.90
13446;DHT22;6795;51.232;3.764;2023-01-15T07:16:56;5.30;99.90
13446;DHT22;6795;51.232;3.764;2023-01-15T07:19:25;5.30;99.90
13446;DHT22;6795;51.232;3.764;2023-01-15T07:21:54;5.30;99.90
13446;DHT22;6795;51.232;3.764;2023-01-15T07:24:22;5.30;99.90
13446;DHT22;6795;51.232;3.764;2023-01-15T07:26:51;5.30;99.90
13446;DHT22;6795;51.232;3.764;2023-01-15T07:29:19;5.30;99.90
13446;DHT22;6795;51.232;3.764;2023-01-15T07:31:49;5.30;99.90
13446;DHT22;6795;51.232;3.764;2023-01-15T07:34:19;5.30;99.90
13446;DHT22;6795;51.232;3.764;2023-01-15T07:36:48;5.20;99.90
13446;DHT22;6795;51.232;3.764;2023-01-15T07:39:16;5.20;99.90
13446;DHT22;6795;51.232;3.764;2023-01-15T07:41:44;5.20;99.90
13446;DHT22;6795;51.232;3.764;2023-01-15T07:44:30;5.20;99.90
13446;DHT22;6795;51.232;3.764;2023-01-15T07:47:19;5.20;99.90
13446;DHT22;6795;51.232;3.764;2023-01-15T07:50:09;5.20;99.90
13446;DHT22;6795;51.232;3.764;2023-01-15T07:52:37;5.30;99.90
13446;DHT22;6795;51.232;3.764;2023-01-15T07:55:06;5.30;99.90
13446;DHT22;6795;51.232;3.764;2023-01-15T07:57:36;5.30;99.90
13446;DHT22;6795;51.232;3.764;2023-01-15T08:00:06;5.30;99.90
13446;DHT22;6795;51.232;3.764;2023-01-15T08:02:35;5.40;99.90
13446;DHT22;6795;51.232;3.764;2023-01-15T08:05:04;5.40;99.90
13446;DHT22;6795;51.232;3.764;2023-01-15T08:07:37;5.40;99.90
13446;DHT22;6795;51.232;3.764;2023-01-15T08:10:06;5.40;99.90
13446;DHT22;6795;51.232;3.764;2023-01-15T08:12:35;5.40;99.90
13446;DHT22;6795;51.232;3.764;2023-01-15T08:15:23;5.30;99.90
13446;DHT22;6795;51.232;3.764;2023-01-15T08:17:52;5.40;99.90
13446;DHT22;6795;51.232;3.764;2023-01-15T08:20:22;5.40;99.90
13446;DHT22;6795;51.232;3.764;2023-01-15T08:22:53;5.40;99.90
13446;DHT22;6795;51.232;3.764;2023-01-15T08:25:23;5.40;99.90
13446;DHT22;6795;51.232;3.764;2023-01-15T08:27:52;5.40;99.90
13446;DHT22;6795;51.232;3.764;2023-01-15T08:30:23;5.50;99.90
13446;DHT22;6795;51.232;3.764;2023-01-15T08:32:57;5.60;99.90
13446;DHT22;6795;51.232;3.764;2023-01-15T08:35:25;5.80;99.90
13446;DHT22;6795;51.232;3.764;2023-01-15T08:37:55;6.00;99.90
13446;DHT22;6795;51.232;3.764;2023-01-15T08:40:24;6.00;99.90
13446;DHT22;6795;51.232;3.764;2023-01-15T08:42:53;6.20;99.90
13446;DHT22;6795;51.232;3.764;2023-01-15T08:45:22;6.30;99.90
13446;DHT22;6795;51.232;3.764;2023-01-15T08:47:54;6.40;99.90
13446;DHT22;6795;51.232;3.764;2023-01-15T08:50:23;6.50;99.90
13446;DHT22;6795;51.232;3.764;2023-01-15T08:52:52;6.50;99.90
13446;DHT22;6795;51.232;3.764;2023-01-15T08:55:22;6.60;99.90
13446;DHT22;6795;51.232;3.764;2023-01-15T08:57:50;6.60;99.90
13446;DHT22;6795;51.232;3.764;2023-01-15T09:00:19;6.70;99.90
13446;DHT22;6795;51.232;3.764;2023-01-15T09:02:47;6.70;99.90
13446;DHT22;6795;51.232;3.764;2023-01-15T09:05:16;6.80;99.90
13446;DHT22;6795;51.232;3.764;2023-01-15T09:07:45;6.80;99.90
13446;DHT22;6795;51.232;3.764;2023-01-15T09:10:14;6.80;99.90
13446;DHT22;6795;51.232;3.764;2023-01-15T09:12:44;6.70;99.90
13446;DHT22;6795;51.232;3.764;2023-01-15T09:15:12;6.70;99.90
13446;DHT22;6795;51.232;3.764;2023-01-15T09:17:41;6.70;99.90
13446;DHT22;6795;51.232;3.764;2023-01-15T09:20:12;6.70;99.90
13446;DHT22;6795;51.232;3.764;2023-01-15T09:22:40;6.70;99.90
13446;DHT22;6795;51.232;3.764;2023-01-15T09:25:09;6.80;99.90
13446;DHT22;6795;51.232;3.764;2023-01-15T09:27:37;6.90;99.90
13446;DHT22;6795;51.232;3.764;2023-01-15T09:30:09;7.10;99.90
13446;DHT22;6795;51.232;3.764;2023-01-15T09:32:41;7.30;99.90
13446;DHT22;6795;51.232;3.764;2023-01-15T09:35:09;7.40;99.90
13446;DHT22;6795;51.232;3.764;2023-01-15T09:37:38;7.50;99.90
13446;DHT22;6795;51.232;3.764;2023-01-15T09:40:15;7.40;99.90
13446;DHT22;6795;51.232;3.764;2023-01-15T09:42:51;7.40;99.90
13446;DHT22;6795;51.232;3.764;2023-01-15T09:45:25;7.40;99.90
13446;DHT22;6795;51.232;3.764;2023-01-15T09:51:07;7.50;99.90
13446;DHT22;6795;51.232;3.764;2023-01-15T09:53:52;7.50;99.90
13446;DHT22;6795;51.232;3.764;2023-01-15T09:56:25;7.50;99.90
13446;DHT22;6795;51.232;3.764;2023-01-15T09:58:57;7.30;99.90
13446;DHT22;6795;51.232;3.764;2023-01-15T10:01:29;7.20;99.90
13446;DHT22;6795;51.232;3.764;2023-01-15T10:04:01;7.20;99.90
13446;DHT22;6795;51.232;3.764;2023-01-15T10:06:36;7.20;99.90
13446;DHT22;6795;51.232;3.764;2023-01-15T10:09:12;7.10;99.90
13446;DHT22;6795;51.232;3.764;2023-01-15T10:11:44;6.90;99.90
13446;DHT22;6795;51.232;3.764;2023-01-15T10:14:38;7.00;99.90
13446;DHT22;6795;51.232;3.764;2023-01-15T10:17:27;7.00;99.90
13446;DHT22;6795;51.232;3.764;2023-01-15T10:19:57;7.00;99.90
13446;DHT22;6795;51.232;3.764;2023-01-15T10:22:38;7.10;99.90
13446;DHT22;6795;51.232;3.764;2023-01-15T10:25:15;7.10;99.90
13446;DHT22;6795;51.232;3.764;2023-01-15T10:27:46;7.20;99.90
13446;DHT22;6795;51.232;3.764;2023-01-15T10:30:27;7.20;99.90
13446;DHT22;6795;51.232;3.764;2023-01-15T10:33:06;7.30;99.90
13446;DHT22;6795;51.232;3.764;2023-01-15T10:35:42;7.20;99.90
13446;DHT22;6795;51.232;3.764;2023-01-15T10:38:17;7.30;99.90
13446;DHT22;6795;51.232;3.764;2023-01-15T10:41:16;7.30;99.90
13446;DHT22;6795;51.232;3.764;2023-01-15T10:43:50;7.30;99.90
13446;DHT22;6795;51.232;3.764;2023-01-15T10:46:24;7.40;99.90
13446;DHT22;6795;51.232;3.764;2023-01-15T10:48:58;7.50;99.90
13446;DHT22;6795;51.232;3.764;2023-01-15T10:51:30;7.40;99.90
13446;DHT22;6795;51.232;3.764;2023-01-15T10:54:09;7.20;99.90
13446;DHT22;6795;51.232;3.764;2023-01-15T10:56:42;7.00;99.90
13446;DHT22;6795;51.232;3.764;2023-01-15T10:59:17;6.90;99.90
13446;DHT22;6795;51.232;3.764;2023-01-15T11:01:51;6.80;99.90
13446;DHT22;6795;51.232;3.764;2023-01-15T11:04:22;6.80;99.90
13446;DHT22;6795;51.232;3.764;2023-01-15T11:06:52;6.90;99.90
13446;DHT22;6795;51.232;3.764;2023-01-15T11:09:22;7.10;99.90
13446;DHT22;6795;51.232;3.764;2023-01-15T11:12:05;7.30;99.90
13446;DHT22;6795;51.232;3.764;2023-01-15T11:14:56;7.50;99.90
13446;DHT22;6795;51.232;3.764;2023-01-15T11:17:43;7.70;99.90
13446;DHT22;6795;51.232;3.764;2023-01-15T11:20:33;7.60;99.90
13446;DHT22;6795;51.232;3.764;2023-01-15T11:23:06;7.30;99.90
13446;DHT22;6795;51.232;3.764;2023-01-15T11:25:35;7.20;99.90
13446;DHT22;6795;51.232;3.764;2023-01-15T11:28:09;7.20;99.90
13446;DHT22;6795;51.232;3.764;2023-01-15T11:30:41;7.10;99.90
13446;DHT22;6795;51.232;3.764;2023-01-15T11:33:21;7.10;99.90
13446;DHT22;6795;51.232;3.764;2023-01-15T11:35:53;7.10;99.90
13446;DHT22;6795;51.232;3.764;2023-01-15T11:38:26;7.00;99.90
13446;DHT22;6795;51.232;3.764;2023-01-15T11:40:56;7.10;99.90
13446;DHT22;6795;51.232;3.764;2023-01-15T11:43:27;7.00;99.90
13446;DHT22;6795;51.232;3.764;2023-01-15T11:46:24;7.30;99.90
13446;DHT22;6795;51.232;3.764;2023-01-15T11:49:08;7.70;99.90
13446;DHT22;6795;51.232;3.764;2023-01-15T11:51:57;7.90;99.90
13446;DHT22;6795;51.232;3.764;2023-01-15T11:54:26;8.30;99.90
13446;DHT22;6795;51.232;3.764;2023-01-15T11:56:57;8.50;99.90
13446;DHT22;6795;51.232;3.764;2023-01-15T11:59:26;8.60;99.90
13446;DHT22;6795;51.232;3.764;2023-01-15T12:01:57;8.40;99.90
13446;DHT22;6795;51.232;3.764;2023-01-15T12:04:33;8.50;99.90
13446;DHT22;6795;51.232;3.764;2023-01-15T12:07:05;8.20;99.90
13446;DHT22;6795;51.232;3.764;2023-01-15T12:09:54;8.30;99.90
13446;DHT22;6795;51.232;3.764;2023-01-15T12:12:35;8.30;99.90
13446;DHT22;6795;51.232;3.764;2023-01-15T12:15:22;8.60;99.90
13446;DHT22;6795;51.232;3.764;2023-01-15T12:18:26;8.90;99.90
13446;DHT22;6795;51.232;3.764;2023-01-15T12:21:02;8.80;99.90
13446;DHT22;6795;51.232;3.764;2023-01-15T12:23:48;8.70;99.90
13446;DHT22;6795;51.232;3.764;2023-01-15T12:26:25;8.60;99.90
13446;DHT22;6795;51.232;3.764;2023-01-15T12:29:00;8.80;99.90
13446;DHT22;6795;51.232;3.764;2023-01-15T12:31:33;8.70;99.90
13446;DHT22;6795;51.232;3.764;2023-01-15T12:34:10;8.60;99.90
13446;DHT22;6795;51.232;3.764;2023-01-15T12:36:44;8.70;99.90
13446;DHT22;6795;51.232;3.764;2023-01-15T12:39:20;8.80;99.90
13446;DHT22;6795;51.232;3.764;2023-01-15T12:41:53;8.90;99.90
13446;DHT22;6795;51.232;3.764;2023-01-15T12:44:43;8.70;99.90
13446;DHT22;6795;51.232;3.764;2023-01-15T12:47:41;8.50;99.90
13446;DHT22;6795;51.232;3.764;2023-01-15T12:50:28;8.70;99.90
13446;DHT22;6795;51.232;3.764;2023-01-15T12:53:05;8.60;99.90
13446;DHT22;6795;51.232;3.764;2023-01-15T12:55:39;8.60;99.90
13446;DHT22;6795;51.232;3.764;2023-01-15T12:58:16;8.60;99.90
13446;DHT22;6795;51.232;3.764;2023-01-15T13:00:48;8.40;99.90
13446;DHT22;6795;51.232;3.764;2023-01-15T13:03:22;8.30;99.90
13446;DHT22;6795;51.232;3.764;2023-01-15T13:05:54;8.50;99.90
13446;DHT22;6795;51.232;3.764;2023-01-15T13:08:27;8.70;99.90
13446;DHT22;6795;51.232;3.764;2023-01-15T13:10:58;8.70;99.90
13446;DHT22;6795;51.232;3.764;2023-01-15T13:13:30;8.90;99.90
13446;DHT22;6795;51.232;3.764;2023-01-15T13:16:15;9.10;99.90
13446;DHT22;6795;51.232;3.764;2023-01-15T13:18:53;9.30;99.90
13446;DHT22;6795;51.232;3.764;2023-01-15T13:21:25;9.20;99.90
13446;DHT22;6795;51.232;3.764;2023-01-15T13:24:15;8.80;99.90
13446;DHT22;6795;51.232;3.764;2023-01-15T13:26:56;8.70;99.90
13446;DHT22;6795;51.232;3.764;2023-01-15T13:29:38;8.90;99.90
13446;DHT22;6795;51.232;3.764;2023-01-15T13:32:12;9.10;99.90
13446;DHT22;6795;51.232;3.764;2023-01-15T13:34:45;8.80;99.90
13446;DHT22;6795;51.232;3.764;2023-01-15T13:37:21;8.50;99.90
13446;DHT22;6795;51.232;3.764;2023-01-15T13:39:53;8.40;99.90
13446;DHT22;6795;51.232;3.764;2023-01-15T13:42:26;8.10;99.90
13446;DHT22;6795;51.232;3.764;2023-01-15T13:45:19;7.90;99.90
13446;DHT22;6795;51.232;3.764;2023-01-15T13:47:55;7.70;99.90
13446;DHT22;6795;51.232;3.764;2023-01-15T13:50:28;7.60;99.90
13446;DHT22;6795;51.232;3.764;2023-01-15T13:53:07;7.60;99.90
13446;DHT22;6795;51.232;3.764;2023-01-15T13:55:48;7.80;99.90
13446;DHT22;6795;51.232;3.764;2023-01-15T13:58:23;7.80;99.90
13446;DHT22;6795;51.232;3.764;2023-01-15T14:01:04;7.70;99.90
13446;DHT22;6795;51.232;3.764;2023-01-15T14:03:36;7.70;99.90
13446;DHT22;6795;51.232;3.764;2023-01-15T14:06:07;7.80;99.90
13446;DHT22;6795;51.232;3.764;2023-01-15T14:08:39;8.00;99.90
13446;DHT22;6795;51.232;3.764;2023-01-15T14:11:30;7.70;99.90
13446;DHT22;6795;51.232;3.764;2023-01-15T14:23:02;7.80;99.90
13446;DHT22;6795;51.232;3.764;2023-01-15T14:25:40;7.80;99.90
13446;DHT22;6795;51.232;3.764;2023-01-15T14:28:29;7.60;99.90
13446;DHT22;6795;51.232;3.764;2023-01-15T14:34:10;7.10;99.90
13446;DHT22;6795;51.232;3.764;2023-01-15T14:36:49;6.90;99.90
13446;DHT22;6795;51.232;3.764;2023-01-15T14:39:29;6.80;99.90
13446;DHT22;6795;51.232;3.764;2023-01-15T14:42:03;6.80;99.90
13446;DHT22;6795;51.232;3.764;2023-01-15T14:45:02;6.70;99.90
13446;DHT22;6795;51.232;3.764;2023-01-15T14:47:42;6.70;99.90
13446;DHT22;6795;51.232;3.764;2023-01-15T14:50:24;6.70;99.90
13446;DHT22;6795;51.232;3.764;2023-01-15T14:52:57;6.70;99.90
13446;DHT22;6795;51.232;3.764;2023-01-15T14:55:27;6.70;99.90
13446;DHT22;6795;51.232;3.764;2023-01-15T14:58:00;6.70;99.90
13446;DHT22;6795;51.232;3.764;2023-01-15T15:00:34;6.70;99.90
13446;DHT22;6795;51.232;3.764;2023-01-15T15:03:13;6.70;99.90
13446;DHT22;6795;51.232;3.764;2023-01-15T15:05:45;6.80;99.90
13446;DHT22;6795;51.232;3.764;2023-01-15T15:08:15;6.70;99.90
13446;DHT22;6795;51.232;3.764;2023-01-15T15:10:49;6.80;99.90
13446;DHT22;6795;51.232;3.764;2023-01-15T15:13:27;6.70;99.90
13446;DHT22;6795;51.232;3.764;2023-01-15T15:16:03;6.70;99.90
13446;DHT22;6795;51.232;3.764;2023-01-15T15:18:38;6.60;99.90
13446;DHT22;6795;51.232;3.764;2023-01-15T15:21:15;6.50;99.90
13446;DHT22;6795;51.232;3.764;2023-01-15T15:23:50;6.60;99.90
13446;DHT22;6795;51.232;3.764;2023-01-15T15:26:25;6.60;99.90
13446;DHT22;6795;51.232;3.764;2023-01-15T15:28:58;6.60;99.90
13446;DHT22;6795;51.232;3.764;2023-01-15T15:31:28;6.60;99.90
13446;DHT22;6795;51.232;3.764;2023-01-15T15:34:00;6.50;99.90
13446;DHT22;6795;51.232;3.764;2023-01-15T15:36:30;6.60;99.90
13446;DHT22;6795;51.232;3.764;2023-01-15T15:39:02;6.60;99.90
13446;DHT22;6795;51.232;3.764;2023-01-15T15:41:34;6.60;99.90
13446;DHT22;6795;51.232;3.764;2023-01-15T15:44:30;6.50;99.90
13446;DHT22;6795;51.232;3.764;2023-01-15T15:47:18;6.50;99.90
13446;DHT22;6795;51.232;3.764;2023-01-15T15:50:22;6.30;99.90
13446;DHT22;6795;51.232;3.764;2023-01-15T15:52:51;6.30;99.90
13446;DHT22;6795;51.232;3.764;2023-01-15T15:55:20;6.20;99.90
13446;DHT22;6795;51.232;3.764;2023-01-15T15:57:51;6.20;99.90
13446;DHT22;6795;51.232;3.764;2023-01-15T16:00:25;6.10;99.90
13446;DHT22;6795;51.232;3.764;2023-01-15T16:02:55;6.00;99.90
13446;DHT22;6795;51.232;3.764;2023-01-15T16:05:26;6.00;99.90
13446;DHT22;6795;51.232;3.764;2023-01-15T16:08:07;6.00;99.90
13446;DHT22;6795;51.232;3.764;2023-01-15T16:10:43;5.90;99.90
13446;DHT22;6795;51.232;3.764;2023-01-15T16:13:20;5.90;99.90
13446;DHT22;6795;51.232;3.764;2023-01-15T16:15:49;5.80;99.90
13446;DHT22;6795;51.232;3.764;2023-01-15T16:18:24;5.80;99.90
13446;DHT22;6795;51.232;3.764;2023-01-15T16:20:55;5.70;99.90
13446;DHT22;6795;51.232;3.764;2023-01-15T16:23:25;5.80;99.90
13446;DHT22;6795;51.232;3.764;2023-01-15T16:25:59;5.90;99.90
13446;DHT22;6795;51.232;3.764;2023-01-15T16:28:35;5.90;99.90
13446;DHT22;6795;51.232;3.764;2023-01-15T16:31:04;6.00;99.90
13446;DHT22;6795;51.232;3.764;2023-01-15T16:33:35;6.10;99.90
13446;DHT22;6795;51.232;3.764;2023-01-15T16:36:06;6.10;99.90
13446;DHT22;6795;51.232;3.764;2023-01-15T16:38:37;6.20;99.90
13446;DHT22;6795;51.232;3.764;2023-01-15T16:41:12;6.20;99.90
13446;DHT22;6795;51.232;3.764;2023-01-15T16:43:50;6.20;99.90
13446;DHT22;6795;51.232;3.764;2023-01-15T16:46:19;6.00;99.90
13446;DHT22;6795;51.232;3.764;2023-01-15T16:48:48;5.90;99.90
13446;DHT22;6795;51.232;3.764;2023-01-15T16:51:38;5.90;99.90
13446;DHT22;6795;51.232;3.764;2023-01-15T16:54:41;5.80;99.90
13446;DHT22;6795;51.232;3.764;2023-01-15T16:57:28;5.60;99.90
13446;DHT22;6795;51.232;3.764;2023-01-15T17:00:01;5.60;99.90
13446;DHT22;6795;51.232;3.764;2023-01-15T17:02:41;5.60;99.90
13446;DHT22;6795;51.232;3.764;2023-01-15T17:05:18;5.50;99.90